Time;durP1;ratioP1;P1;durP2;ratioP2;P2;SDS_P1;SDS_P2;PMS_P1;PMS_P2;Temp;Humidity;BMP_temperature;BMP_pressure;BME280_temperature;BME280_humidity;BME280_pressure;Samples;Min_cycle;Max_cycle;Signal;HPM_P1;HPM_P2
2023/02/03 00:00:46;;;;;;;4.82;1.25;;;9.10;99.90;;;;;;5055732;28;20136;-53
2023/02/03 00:03:12;;;;;;;3.45;0.80;;;9.10;99.90;;;;;;5055456;28;20073;-52
2023/02/03 00:05:39;;;;;;;2.75;1.30;;;9.10;99.90;;;;;;5055713;28;20495;-54
2023/02/03 00:08:06;;;;;;;4.15;0.77;;;9.00;99.90;;;;;;5055682;28;20099;-55
2023/02/03 00:10:32;;;;;;;4.97;1.02;;;9.00;99.90;;;;;;5056217;28;20090;-52
2023/02/03 00:12:59;;;;;;;3.10;1.15;;;9.00;99.90;;;;;;5055433;28;20051;-53
2023/02/03 00:15:26;;;;;;;4.78;1.17;;;9.00;99.90;;;;;;5055525;28;20116;-55
2023/02/03 00:17:52;;;;;;;3.25;1.00;;;9.10;99.90;;;;;;5055655;28;20120;-54
2023/02/03 00:20:19;;;;;;;4.32;1.08;;;9.10;99.90;;;;;;5055345;28;20083;-55
2023/02/03 00:22:46;;;;;;;3.67;0.95;;;9.10;99.90;;;;;;5055485;28;20091;-55
2023/02/03 00:25:13;;;;;;;3.72;1.42;;;9.10;99.90;;;;;;5055367;28;20507;-55
2023/02/03 00:27:39;;;;;;;4.78;0.90;;;9.10;99.90;;;;;;5055304;28;20041;-53
2023/02/03 00:30:06;;;;;;;4.38;0.93;;;9.20;99.90;;;;;;5055287;28;20499;-54
2023/02/03 00:32:33;;;;;;;4.25;1.13;;;9.20;99.90;;;;;;5055130;28;20040;-56
2023/02/03 00:35:00;;;;;;;4.00;1.00;;;9.20;99.90;;;;;;5053988;28;20451;-55
2023/02/03 00:37:26;;;;;;;3.72;0.90;;;9.30;99.90;;;;;;5055277;28;20049;-49
2023/02/03 00:39:53;;;;;;;4.38;1.20;;;9.30;99.90;;;;;;5055243;28;20056;-52
2023/02/03 00:42:20;;;;;;;3.45;0.90;;;9.30;99.90;;;;;;5055267;28;20041;-53
2023/02/03 00:44:46;;;;;;;4.53;1.17;;;9.30;99.90;;;;;;5053769;28;20452;-56
2023/02/03 00:47:13;;;;;;;5.30;0.93;;;9.40;99.90;;;;;;5054699;28;20115;-51
2023/02/03 00:49:40;;;;;;;3.53;0.93;;;9.40;99.90;;;;;;5055227;28;20044;-53
2023/02/03 00:52:07;;;;;;;6.07;2.08;;;9.40;99.90;;;;;;5054793;28;20126;-52
2023/02/03 00:54:33;;;;;;;2.38;0.82;;;9.40;99.90;;;;;;5055079;28;20045;-54
2023/02/03 00:57:01;;;;;;;4.07;1.30;;;9.40;99.90;;;;;;5053346;28;20049;-56
2023/02/03 00:59:28;;;;;;;3.05;0.85;;;9.40;99.90;;;;;;5053747;28;20099;-50
2023/02/03 01:01:54;;;;;;;4.05;0.98;;;9.50;99.90;;;;;;5055152;28;20051;-48
2023/02/03 01:04:22;;;;;;;6.03;1.23;;;9.40;99.90;;;;;;5055061;28;20404;-49
2023/02/03 01:06:49;;;;;;;7.03;1.13;;;9.50;99.90;;;;;;5054570;28;20087;-51
2023/02/03 01:09:17;;;;;;;5.47;1.60;;;9.50;99.90;;;;;;5054576;28;20045;-48
2023/02/03 01:11:44;;;;;;;4.50;1.40;;;9.50;99.90;;;;;;5054772;28;20033;-51
2023/02/03 01:14:13;;;;;;;5.30;1.35;;;9.60;99.90;;;;;;5053631;28;20037;-51
2023/02/03 01:16:39;;;;;;;3.83;1.02;;;9.60;99.90;;;;;;5053193;28;20045;-51
2023/02/03 01:19:06;;;;;;;3.67;1.08;;;9.60;99.90;;;;;;5053887;28;20133;-51
2023/02/03 01:21:35;;;;;;;4.53;1.15;;;9.60;99.90;;;;;;5054427;28;20083;-50
2023/02/03 01:24:01;;;;;;;5.95;1.70;;;9.60;99.90;;;;;;5054156;28;20057;-51
2023/02/03 01:26:29;;;;;;;4.43;1.08;;;9.60;99.90;;;;;;5053781;28;20037;-54
2023/02/03 01:28:56;;;;;;;9.82;1.55;;;9.60;99.90;;;;;;5053794;28;20095;-56
2023/02/03 01:31:23;;;;;;;13.00;1.30;;;9.60;99.90;;;;;;5053886;28;20052;-55
2023/02/03 01:33:50;;;;;;;4.68;1.30;;;9.70;99.90;;;;;;5053022;28;20041;-54
2023/02/03 01:36:17;;;;;;;6.38;1.17;;;9.60;99.90;;;;;;5052565;28;20045;-50
2023/02/03 01:38:44;;;;;;;5.13;1.08;;;9.70;99.90;;;;;;5054195;28;20057;-52
2023/02/03 01:41:10;;;;;;;4.35;1.25;;;9.70;99.90;;;;;;5052895;28;20056;-55
2023/02/03 01:43:37;;;;;;;2.92;1.00;;;9.70;99.90;;;;;;5053954;28;20048;-54
2023/02/03 01:46:04;;;;;;;5.43;1.25;;;9.70;99.90;;;;;;5054045;28;20068;-56
2023/02/03 01:48:31;;;;;;;4.70;1.10;;;9.70;99.90;;;;;;5052570;28;20041;-54
2023/02/03 01:50:57;;;;;;;5.00;1.30;;;9.70;99.90;;;;;;5053799;28;20103;-53
2023/02/03 01:53:25;;;;;;;4.47;1.05;;;9.70;99.90;;;;;;5053814;28;20037;-51
2023/02/03 01:55:52;;;;;;;4.97;1.10;;;9.70;99.90;;;;;;5053825;28;20037;-54
2023/02/03 01:58:19;;;;;;;4.15;1.35;;;9.70;99.90;;;;;;5053556;28;20044;-56
2023/02/03 02:00:46;;;;;;;2.78;1.10;;;9.70;99.90;;;;;;5052422;28;20047;-55
2023/02/03 02:03:12;;;;;;;3.72;0.63;;;9.70;99.90;;;;;;5052228;28;20049;-55
2023/02/03 02:05:39;;;;;;;3.55;0.90;;;9.70;99.90;;;;;;5053687;28;20068;-53
2023/02/03 02:08:06;;;;;;;3.25;0.90;;;9.70;99.90;;;;;;5052013;28;20045;-53
2023/02/03 02:10:33;;;;;;;4.40;1.42;;;9.70;99.90;;;;;;5052458;28;20036;-53
2023/02/03 02:13:00;;;;;;;4.75;1.00;;;9.70;99.90;;;;;;5052290;28;20451;-52
2023/02/03 02:15:27;;;;;;;3.97;1.10;;;9.70;99.90;;;;;;5052367;28;20049;-51
2023/02/03 02:17:54;;;;;;;5.10;1.00;;;9.70;99.90;;;;;;5051986;28;20076;-50
2023/02/03 02:20:20;;;;;;;5.05;0.95;;;9.70;99.90;;;;;;5053288;28;20477;-54
2023/02/03 02:22:48;;;;;;;5.50;0.88;;;9.70;99.90;;;;;;5053374;28;20040;-53
2023/02/03 02:25:15;;;;;;;5.05;1.30;;;9.70;99.90;;;;;;5052961;28;20057;-55
2023/02/03 02:27:42;;;;;;;3.53;0.82;;;9.70;99.90;;;;;;5057821;28;20114;-55
2023/02/03 02:30:08;;;;;;;4.90;1.10;;;9.70;99.90;;;;;;5057449;28;20041;-54
2023/02/03 02:32:35;;;;;;;5.28;1.00;;;9.70;99.90;;;;;;5057447;28;20045;-50
2023/02/03 02:35:02;;;;;;;5.25;1.23;;;9.70;99.90;;;;;;5039725;28;20047;-55
2023/02/03 02:37:29;;;;;;;5.18;0.85;;;9.70;99.90;;;;;;5056037;28;20176;-54
2023/02/03 02:39:56;;;;;;;4.25;0.80;;;9.70;99.90;;;;;;5056374;28;20049;-54
2023/02/03 02:42:23;;;;;;;2.42;0.85;;;9.70;99.90;;;;;;5056158;28;20423;-51
2023/02/03 02:44:50;;;;;;;2.97;0.70;;;9.70;99.90;;;;;;5056162;28;20053;-54
2023/02/03 02:47:17;;;;;;;4.10;1.17;;;9.70;99.90;;;;;;5055680;28;20117;-53
2023/02/03 02:49:45;;;;;;;5.35;1.15;;;9.70;99.90;;;;;;5055899;28;20098;-54
2023/02/03 02:52:11;;;;;;;2.28;0.90;;;9.70;99.90;;;;;;5055775;28;20044;-55
2023/02/03 02:54:40;;;;;;;5.20;0.98;;;9.70;99.90;;;;;;5055917;28;20040;-55
2023/02/03 02:57:07;;;;;;;3.53;0.80;;;9.70;99.90;;;;;;5055538;28;20095;-55
2023/02/03 02:59:33;;;;;;;3.55;0.90;;;9.70;99.90;;;;;;5057297;28;20045;-56
2023/02/03 03:02:01;;;;;;;3.55;0.88;;;9.80;99.90;;;;;;5056705;28;20065;-54
2023/02/03 03:04:27;;;;;;;3.35;0.80;;;9.80;99.90;;;;;;5055503;28;20041;-52
2023/02/03 03:06:54;;;;;;;4.20;1.00;;;9.80;99.90;;;;;;5055680;28;20057;-54
2023/02/03 03:09:22;;;;;;;3.22;0.85;;;9.80;99.90;;;;;;5055294;28;20561;-52
2023/02/03 03:11:51;;;;;;;3.85;0.95;;;9.80;99.90;;;;;;5055730;28;20048;-56
2023/02/03 03:14:18;;;;;;;3.35;1.00;;;9.70;99.90;;;;;;5056685;28;20123;-54
2023/02/03 03:16:46;;;;;;;2.60;0.63;;;9.70;99.90;;;;;;5055412;28;20404;-50
2023/02/03 03:19:13;;;;;;;4.57;1.00;;;9.70;99.90;;;;;;5055111;28;20060;-49
2023/02/03 03:21:40;;;;;;;3.88;0.90;;;9.70;99.90;;;;;;5056660;28;20380;-53
2023/02/03 03:24:07;;;;;;;3.75;0.90;;;9.70;99.90;;;;;;5056807;28;20044;-53
2023/02/03 03:26:34;;;;;;;3.88;0.90;;;9.70;99.90;;;;;;5056446;28;20044;-54
2023/02/03 03:29:00;;;;;;;3.05;0.73;;;9.70;99.90;;;;;;5056624;28;20120;-50
2023/02/03 03:31:27;;;;;;;3.53;0.75;;;9.60;99.90;;;;;;5055313;28;20049;-55
2023/02/03 03:33:54;;;;;;;4.40;0.90;;;9.60;99.90;;;;;;5056335;28;20044;-54
2023/02/03 03:36:21;;;;;;;3.20;0.82;;;9.60;99.90;;;;;;5056175;28;20029;-52
2023/02/03 03:38:47;;;;;;;3.13;0.80;;;9.50;99.90;;;;;;5055758;28;20041;-53
2023/02/03 03:41:14;;;;;;;5.13;0.88;;;9.50;99.90;;;;;;5056116;28;20053;-52
2023/02/03 03:43:41;;;;;;;7.25;1.08;;;9.50;99.90;;;;;;5056346;28;20041;-55
2023/02/03 03:46:07;;;;;;;4.22;0.80;;;9.50;99.90;;;;;;5056220;28;20099;-53
2023/02/03 03:48:34;;;;;;;2.88;0.98;;;9.50;99.90;;;;;;5056099;28;20471;-54
2023/02/03 03:51:01;;;;;;;6.75;0.90;;;9.50;99.90;;;;;;5055989;28;20044;-50
2023/02/03 03:53:27;;;;;;;3.30;0.88;;;9.50;99.90;;;;;;5056014;28;20047;-54
2023/02/03 03:55:54;;;;;;;5.70;1.13;;;9.40;99.90;;;;;;5056290;28;20037;-54
2023/02/03 03:58:21;;;;;;;8.45;1.23;;;9.40;99.90;;;;;;5055764;28;20045;-54
2023/02/03 04:00:48;;;;;;;5.20;1.30;;;9.40;99.90;;;;;;5055928;28;20045;-50
2023/02/03 04:03:14;;;;;;;4.13;1.08;;;9.40;99.90;;;;;;5056103;28;20087;-54
2023/02/03 04:05:41;;;;;;;4.38;1.00;;;9.40;99.90;;;;;;5055663;28;20426;-53
2023/02/03 04:08:08;;;;;;;6.45;1.25;;;9.40;99.90;;;;;;5055669;28;20052;-53
2023/02/03 04:10:35;;;;;;;2.95;0.77;;;9.30;99.90;;;;;;5055913;28;20079;-52
2023/02/03 04:13:02;;;;;;;4.07;0.95;;;9.30;99.90;;;;;;5055764;28;20444;-51
2023/02/03 04:15:29;;;;;;;4.13;0.95;;;9.30;99.90;;;;;;5055617;28;20197;-54
2023/02/03 04:17:56;;;;;;;6.22;1.35;;;9.30;99.90;;;;;;5055427;28;20427;-55
2023/02/03 04:20:22;;;;;;;4.38;1.08;;;9.20;99.90;;;;;;5055228;28;20107;-51
2023/02/03 04:22:49;;;;;;;5.15;1.20;;;9.20;99.90;;;;;;5055460;28;20223;-53
2023/02/03 04:25:16;;;;;;;3.63;0.88;;;9.20;99.90;;;;;;5055422;28;20076;-54
2023/02/03 04:27:42;;;;;;;3.40;0.90;;;9.10;99.90;;;;;;5055338;28;20037;-53
2023/02/03 04:30:09;;;;;;;3.67;0.90;;;9.10;99.90;;;;;;5054888;28;20053;-53
2023/02/03 04:32:36;;;;;;;6.03;1.45;;;9.10;99.90;;;;;;5055181;28;20041;-48
2023/02/03 04:35:03;;;;;;;4.03;1.10;;;9.00;99.90;;;;;;5055324;28;20520;-53
2023/02/03 04:37:30;;;;;;;5.20;1.00;;;9.00;99.90;;;;;;5055048;28;20049;-54
2023/02/03 04:39:57;;;;;;;5.20;0.90;;;9.00;99.90;;;;;;5055287;28;20440;-53
2023/02/03 04:42:23;;;;;;;3.70;1.13;;;9.00;99.90;;;;;;5055132;28;20041;-52
2023/02/03 04:44:50;;;;;;;4.20;1.38;;;9.00;99.90;;;;;;5054992;28;20037;-55
2023/02/03 04:47:17;;;;;;;4.35;0.93;;;9.00;99.90;;;;;;5054829;28;20072;-56
2023/02/03 04:49:43;;;;;;;5.28;1.17;;;9.00;99.90;;;;;;5054921;28;20073;-52
2023/02/03 04:52:10;;;;;;;4.20;1.00;;;9.00;99.90;;;;;;5055308;28;20064;-53
2023/02/03 04:54:37;;;;;;;4.78;0.93;;;9.00;99.90;;;;;;5054803;28;20124;-52
2023/02/03 04:57:04;;;;;;;10.02;1.70;;;8.90;99.90;;;;;;5054780;28;20102;-52
2023/02/03 04:59:30;;;;;;;4.32;0.95;;;9.00;99.90;;;;;;5054744;28;20116;-53
2023/02/03 05:01:57;;;;;;;3.92;1.00;;;9.00;99.90;;;;;;5054980;28;20065;-51
2023/02/03 05:04:24;;;;;;;6.82;1.20;;;9.00;99.90;;;;;;5053640;28;20041;-53
2023/02/03 05:06:50;;;;;;;4.60;1.00;;;9.00;99.90;;;;;;5054422;28;20136;-52
2023/02/03 05:09:17;;;;;;;5.88;1.15;;;9.00;99.90;;;;;;5054378;28;20051;-55
2023/02/03 05:11:44;;;;;;;7.35;1.20;;;9.00;99.90;;;;;;5054575;28;20037;-56
2023/02/03 05:14:11;;;;;;;5.57;1.00;;;9.10;99.90;;;;;;5054784;28;20083;-56
2023/02/03 05:16:37;;;;;;;5.03;0.95;;;9.10;99.90;;;;;;5054458;28;20040;-54
2023/02/03 05:19:04;;;;;;;5.63;1.30;;;9.10;99.90;;;;;;5054279;28;20435;-52
2023/02/03 05:21:34;;;;;;;5.40;1.35;;;9.20;99.90;;;;;;5053427;28;20037;-56
2023/02/03 05:24:02;;;;;;;5.70;1.38;;;9.20;99.90;;;;;;5054611;28;20128;-52
2023/02/03 05:26:29;;;;;;;4.25;1.00;;;9.30;99.90;;;;;;5054362;28;20045;-52
2023/02/03 05:28:55;;;;;;;6.05;1.15;;;9.20;99.90;;;;;;5053634;28;20566;-51
2023/02/03 05:31:23;;;;;;;5.03;1.30;;;9.20;99.90;;;;;;5054206;28;20082;-54
2023/02/03 05:33:50;;;;;;;6.32;1.48;;;9.10;99.90;;;;;;5054277;28;20068;-52
2023/02/03 05:36:16;;;;;;;4.80;1.23;;;9.10;99.90;;;;;;5054107;28;20067;-51
2023/02/03 05:38:43;;;;;;;4.70;1.20;;;9.10;99.90;;;;;;5054293;28;20049;-54
2023/02/03 05:43:55;;;;;;;4.07;1.13;;;9.00;99.90;;;;;;5054051;28;20095;-52
2023/02/03 05:46:22;;;;;;;4.05;0.98;;;9.00;99.90;;;;;;5054052;28;20049;-53
2023/02/03 05:48:49;;;;;;;3.92;1.60;;;9.00;99.90;;;;;;5053957;28;20044;-51
2023/02/03 05:51:15;;;;;;;3.38;1.10;;;9.00;99.90;;;;;;5053773;28;20041;-53
2023/02/03 05:53:42;;;;;;;5.32;1.25;;;8.90;99.90;;;;;;5052761;28;20044;-55
2023/02/03 05:56:09;;;;;;;5.88;1.23;;;8.90;99.90;;;;;;5053844;28;20037;-51
2023/02/03 05:58:36;;;;;;;6.82;1.33;;;8.90;99.90;;;;;;5053952;28;20084;-53
2023/02/03 06:01:02;;;;;;;6.10;1.30;;;8.90;99.90;;;;;;5053681;28;20068;-55
2023/02/03 06:03:29;;;;;;;6.30;1.40;;;9.00;99.90;;;;;;5053496;28;20053;-53
2023/02/03 06:05:57;;;;;;;3.47;1.05;;;8.90;99.90;;;;;;5053680;28;20069;-56
2023/02/03 06:08:27;;;;;;;5.30;1.05;;;8.90;99.90;;;;;;5053659;28;20044;-52
2023/02/03 06:10:54;;;;;;;6.97;1.30;;;8.90;99.90;;;;;;5053644;28;20094;-54
2023/02/03 06:13:20;;;;;;;5.95;1.23;;;8.90;99.90;;;;;;5053522;28;20073;-55
2023/02/03 06:15:47;;;;;;;5.60;1.15;;;8.90;99.90;;;;;;5053480;28;20037;-53
2023/02/03 06:18:14;;;;;;;4.45;0.90;;;8.90;99.90;;;;;;5052728;28;20484;-52
2023/02/03 06:20:41;;;;;;;7.72;1.50;;;8.90;99.90;;;;;;5053377;28;20061;-50
2023/02/03 06:23:07;;;;;;;4.60;0.95;;;8.90;99.90;;;;;;5053511;28;20421;-53
2023/02/03 06:25:34;;;;;;;4.72;1.10;;;8.90;99.90;;;;;;5053348;28;20044;-55
2023/02/03 06:28:01;;;;;;;7.15;1.17;;;8.90;99.90;;;;;;5053327;28;20136;-54
2023/02/03 06:30:28;;;;;;;7.47;1.33;;;8.90;99.90;;;;;;5053456;28;20412;-52
2023/02/03 06:32:55;;;;;;;5.70;1.13;;;8.90;99.90;;;;;;5053336;28;20045;-48
2023/02/03 06:35:22;;;;;;;6.13;1.10;;;8.90;99.90;;;;;;5053183;28;20068;-54
2023/02/03 06:37:48;;;;;;;6.72;0.93;;;8.90;99.90;;;;;;5051780;28;20413;-53
2023/02/03 06:40:15;;;;;;;5.25;1.00;;;8.90;99.90;;;;;;5053359;28;20433;-50
2023/02/03 06:42:42;;;;;;;9.10;1.23;;;8.90;99.90;;;;;;5053580;28;20045;-53
2023/02/03 06:45:08;;;;;;;4.28;1.10;;;8.90;99.90;;;;;;5051978;28;20045;-53
2023/02/03 06:47:35;;;;;;;3.65;1.00;;;8.90;99.90;;;;;;5053295;28;20045;-54
2023/02/03 06:50:02;;;;;;;5.72;1.20;;;8.90;99.90;;;;;;5053546;28;20060;-48
2023/02/03 06:52:28;;;;;;;4.07;1.00;;;8.90;99.90;;;;;;5053562;28;20079;-54
2023/02/03 06:54:55;;;;;;;4.93;0.90;;;8.90;99.90;;;;;;5053175;28;20076;-54
2023/02/03 06:57:22;;;;;;;4.50;0.95;;;8.90;99.90;;;;;;5052931;28;20087;-54
2023/02/03 06:59:48;;;;;;;8.02;1.27;;;8.90;99.90;;;;;;5052974;28;20065;-53
2023/02/03 07:02:15;;;;;;;4.65;0.80;;;8.90;99.90;;;;;;5053224;28;20512;-56
2023/02/03 07:04:43;;;;;;;5.72;0.95;;;8.90;99.90;;;;;;5052893;28;20049;-55
2023/02/03 07:07:11;;;;;;;3.85;0.90;;;8.90;99.90;;;;;;5052580;28;20052;-57
2023/02/03 07:09:38;;;;;;;6.90;1.23;;;8.90;99.90;;;;;;5053088;28;20464;-55
2023/02/03 07:12:04;;;;;;;5.53;1.33;;;8.80;99.90;;;;;;5053338;28;20051;-54
2023/02/03 07:14:31;;;;;;;4.60;1.20;;;8.80;99.90;;;;;;5055651;28;20451;-54
2023/02/03 07:16:58;;;;;;;5.05;1.00;;;8.80;99.90;;;;;;5055278;28;20075;-56
2023/02/03 07:19:24;;;;;;;3.97;1.45;;;8.80;99.90;;;;;;5055191;28;20144;-54
2023/02/03 07:21:51;;;;;;;6.28;1.30;;;8.80;99.90;;;;;;5055336;28;20083;-55
2023/02/03 07:24:18;;;;;;;7.15;1.20;;;8.80;99.90;;;;;;5055208;28;20472;-56
2023/02/03 07:26:44;;;;;;;6.25;1.00;;;8.80;99.90;;;;;;5056266;28;20449;-55
2023/02/03 07:29:11;;;;;;;5.43;1.83;;;8.80;99.90;;;;;;5056421;28;20077;-53
2023/02/03 07:31:38;;;;;;;4.78;1.20;;;8.80;99.90;;;;;;5056287;28;20068;-53
2023/02/03 07:34:05;;;;;;;5.47;1.00;;;8.80;99.90;;;;;;5056237;28;20037;-53
2023/02/03 07:36:31;;;;;;;6.15;1.20;;;8.80;99.90;;;;;;5056485;28;20413;-56
2023/02/03 07:38:58;;;;;;;4.68;1.10;;;8.80;99.90;;;;;;5056258;28;20041;-50
2023/02/03 07:41:25;;;;;;;5.40;1.08;;;8.80;99.90;;;;;;5056173;28;20119;-52
2023/02/03 07:43:52;;;;;;;6.20;1.13;;;8.80;99.90;;;;;;5056264;28;20468;-53
2023/02/03 07:46:18;;;;;;;3.95;1.05;;;8.80;99.90;;;;;;5056384;28;20084;-54
2023/02/03 07:48:45;;;;;;;6.82;1.05;;;8.70;99.90;;;;;;5056504;28;20041;-47
2023/02/03 07:51:12;;;;;;;2.80;0.98;;;8.80;99.90;;;;;;5056322;28;20037;-53
2023/02/03 07:53:38;;;;;;;8.25;3.80;;;8.80;99.90;;;;;;5056310;28;20041;-53
2023/02/03 07:56:05;;;;;;;4.10;1.20;;;8.70;99.90;;;;;;5055787;28;20045;-55
2023/02/03 07:58:34;;;;;;;8.88;1.20;;;8.70;99.90;;;;;;5056468;28;20044;-54
2023/02/03 08:01:01;;;;;;;9.68;1.88;;;8.70;99.90;;;;;;5055960;28;20057;-52
2023/02/03 08:03:28;;;;;;;6.03;1.17;;;8.80;99.90;;;;;;5056007;28;20045;-54
2023/02/03 08:05:55;;;;;;;6.72;1.20;;;8.80;99.90;;;;;;5055799;28;20055;-50
2023/02/03 08:08:21;;;;;;;5.18;1.27;;;8.80;99.90;;;;;;5056005;28;20120;-53
2023/02/03 08:10:48;;;;;;;4.85;1.35;;;8.80;99.90;;;;;;5054644;28;20041;-51
2023/02/03 08:13:15;;;;;;;3.85;1.15;;;8.80;99.90;;;;;;5055738;28;20041;-52
2023/02/03 08:15:42;;;;;;;4.90;1.30;;;8.80;99.90;;;;;;5055646;28;20080;-51
2023/02/03 08:18:11;;;;;;;5.18;1.35;;;8.80;99.90;;;;;;5055247;28;20045;-49
2023/02/03 08:20:38;;;;;;;5.13;1.38;;;8.90;99.90;;;;;;5055295;28;20064;-53
2023/02/03 08:23:04;;;;;;;5.45;1.30;;;8.90;99.90;;;;;;5054893;28;20117;-51
2023/02/03 08:25:31;;;;;;;5.95;1.45;;;8.90;99.90;;;;;;5055233;28;20476;-50
2023/02/03 08:27:58;;;;;;;6.00;1.30;;;8.90;99.90;;;;;;5053457;28;20492;-48
2023/02/03 08:30:25;;;;;;;3.80;1.10;;;9.00;99.90;;;;;;5055840;28;20432;-48
2023/02/03 08:32:52;;;;;;;4.18;1.23;;;9.00;99.90;;;;;;5054997;28;20037;-48
2023/02/03 08:35:21;;;;;;;4.40;1.30;;;9.00;99.90;;;;;;5055079;28;20484;-51
2023/02/03 08:37:48;;;;;;;4.82;1.27;;;9.00;99.90;;;;;;5054764;28;20033;-53
2023/02/03 08:40:15;;;;;;;4.13;1.27;;;9.00;99.90;;;;;;5054869;28;20080;-50
2023/02/03 08:42:41;;;;;;;5.38;1.38;;;9.10;99.90;;;;;;5053691;28;20037;-52
2023/02/03 08:45:08;;;;;;;3.33;1.20;;;9.10;99.90;;;;;;5054970;28;20049;-53
2023/02/03 08:47:35;;;;;;;4.90;1.45;;;9.10;99.90;;;;;;5054845;28;20049;-52
2023/02/03 08:50:02;;;;;;;7.85;1.50;;;9.10;99.90;;;;;;5053664;28;20068;-54
2023/02/03 08:52:29;;;;;;;4.38;1.27;;;9.10;99.90;;;;;;5053259;28;20047;-51
2023/02/03 08:54:56;;;;;;;5.55;1.30;;;9.20;99.90;;;;;;5052474;28;20045;-52
2023/02/03 08:57:22;;;;;;;7.47;1.40;;;9.20;99.90;;;;;;5054301;28;20044;-52
2023/02/03 08:59:50;;;;;;;4.65;1.30;;;9.30;99.90;;;;;;5054667;28;20040;-54
2023/02/03 09:02:16;;;;;;;6.60;1.40;;;9.20;99.90;;;;;;5054638;28;20040;-53
2023/02/03 09:04:43;;;;;;;4.43;1.10;;;9.30;99.90;;;;;;5054012;28;20048;-52
2023/02/03 09:07:10;;;;;;;8.07;3.47;;;9.30;99.90;;;;;;5052820;28;20495;-52
2023/02/03 09:09:37;;;;;;;9.57;1.75;;;9.30;99.90;;;;;;5051676;28;20534;-50
2023/02/03 09:12:04;;;;;;;14.02;9.45;;;9.40;99.90;;;;;;5052099;28;20075;-52
2023/02/03 09:14:31;;;;;;;4.60;1.88;;;9.40;99.90;;;;;;5052100;28;20162;-52
2023/02/03 09:16:58;;;;;;;4.93;1.42;;;9.40;99.90;;;;;;5052001;28;20052;-53
2023/02/03 09:19:25;;;;;;;7.25;1.40;;;9.50;99.90;;;;;;5051980;28;20053;-54
2023/02/03 09:21:52;;;;;;;5.18;1.20;;;9.50;99.90;;;;;;5053067;28;20083;-52
2023/02/03 09:24:19;;;;;;;4.80;1.50;;;9.50;99.90;;;;;;5054002;28;20400;-54
2023/02/03 09:26:45;;;;;;;6.45;1.58;;;9.50;99.90;;;;;;5054316;28;20049;-51
2023/02/03 09:29:12;;;;;;;7.28;1.63;;;9.60;99.90;;;;;;5054568;28;20044;-52
2023/02/03 09:31:39;;;;;;;3.92;1.27;;;9.60;99.90;;;;;;5054331;28;20095;-52
2023/02/03 09:34:06;;;;;;;6.85;1.40;;;9.60;99.90;;;;;;5053843;28;20136;-53
2023/02/03 09:36:32;;;;;;;5.50;1.33;;;9.60;99.90;;;;;;5053031;28;20139;-53
2023/02/03 09:38:59;;;;;;;5.80;1.30;;;9.70;99.90;;;;;;5054020;28;20045;-52
2023/02/03 09:41:26;;;;;;;4.90;1.65;;;9.70;99.90;;;;;;5054169;28;20049;-50
2023/02/03 09:43:53;;;;;;;5.47;1.60;;;9.70;99.90;;;;;;5054156;28;20087;-54
2023/02/03 09:46:19;;;;;;;5.60;1.40;;;9.80;99.90;;;;;;5053773;28;20041;-55
2023/02/03 09:48:46;;;;;;;7.97;1.38;;;9.80;99.90;;;;;;5053507;28;20040;-52
2023/02/03 09:51:13;;;;;;;6.38;1.75;;;9.90;99.90;;;;;;5055208;28;20064;-53
2023/02/03 09:53:42;;;;;;;24.63;2.28;;;9.90;99.90;;;;;;5053441;28;20045;-50
2023/02/03 09:56:08;;;;;;;5.25;1.70;;;10.00;99.90;;;;;;5052614;28;20041;-49
2023/02/03 09:58:35;;;;;;;4.82;1.38;;;10.00;99.90;;;;;;5053731;28;20083;-54
2023/02/03 10:01:04;;;;;;;14.55;1.70;;;10.00;99.90;;;;;;5052150;28;20045;-52
2023/02/03 10:03:31;;;;;;;6.20;1.20;;;10.10;99.90;;;;;;5053836;28;20140;-49
2023/02/03 10:05:58;;;;;;;3.25;1.17;;;10.10;99.90;;;;;;5053565;28;20049;-55
2023/02/03 10:08:24;;;;;;;5.85;1.67;;;10.10;99.90;;;;;;5053774;28;20128;-51
2023/02/03 10:11:08;;;;;;;4.65;1.40;;;10.20;99.90;;;;;;5053510;28;20045;-52
2023/02/03 10:13:35;;;;;;;7.30;1.40;;;10.20;99.90;;;;;;5053757;28;20524;-53
2023/02/03 10:16:04;;;;;;;6.35;1.73;;;10.30;99.90;;;;;;5053562;28;20526;-50
2023/02/03 10:18:32;;;;;;;7.00;1.70;;;10.30;99.90;;;;;;5053200;28;20459;-51
2023/02/03 10:20:58;;;;;;;8.10;2.00;;;10.30;99.90;;;;;;5053635;28;20052;-52
2023/02/03 10:23:25;;;;;;;5.85;1.67;;;10.30;99.90;;;;;;5053339;28;20061;-50
2023/02/03 10:25:55;;;;;;;7.60;1.70;;;10.30;99.90;;;;;;5053269;28;20102;-53
2023/02/03 10:28:23;;;;;;;6.15;1.63;;;10.40;99.90;;;;;;5053819;28;20037;-51
2023/02/03 10:30:50;;;;;;;6.97;2.17;;;10.40;99.90;;;;;;5053550;28;20064;-55
2023/02/03 10:33:17;;;;;;;9.88;1.90;;;10.40;99.90;;;;;;5053265;28;20041;-53
2023/02/03 10:35:43;;;;;;;6.65;1.95;;;10.50;99.90;;;;;;5053537;28;20060;-50
2023/02/03 10:38:10;;;;;;;7.65;1.75;;;10.50;99.90;;;;;;5053516;28;20546;-50
2023/02/03 10:40:37;;;;;;;6.03;1.70;;;10.60;99.90;;;;;;5053700;28;20045;-49
2023/02/03 10:45:49;;;;;;;5.43;1.58;;;10.60;99.90;;;;;;5053215;28;20055;-50
2023/02/03 10:48:16;;;;;;;8.30;2.40;;;10.70;99.90;;;;;;5057108;28;20041;-51
2023/02/03 10:50:42;;;;;;;6.05;1.80;;;10.70;99.90;;;;;;5057055;28;20095;-50
2023/02/03 10:53:09;;;;;;;6.35;1.98;;;10.70;99.90;;;;;;5057230;28;20450;-49
2023/02/03 10:55:36;;;;;;;6.18;1.50;;;10.80;99.90;;;;;;5057451;28;20430;-50
2023/02/03 10:58:03;;;;;;;6.18;1.77;;;10.90;99.90;;;;;;5057292;28;20049;-49
2023/02/03 11:00:29;;;;;;;6.53;1.55;;;10.90;99.90;;;;;;5057322;28;20075;-49
2023/02/03 11:02:56;;;;;;;6.05;1.70;;;10.90;99.90;;;;;;5057408;28;20041;-50
2023/02/03 11:05:26;;;;;;;5.63;1.75;;;11.00;99.90;;;;;;5057295;28;20094;-53
2023/02/03 11:07:53;;;;;;;6.43;1.58;;;11.00;99.90;;;;;;5056995;28;20099;-50
2023/02/03 11:10:20;;;;;;;9.00;1.60;;;11.10;99.90;;;;;;5056753;28;20091;-48
2023/02/03 11:12:47;;;;;;;6.60;2.10;;;11.20;99.90;;;;;;5056841;28;20041;-53
2023/02/03 11:15:13;;;;;;;7.40;1.63;;;11.20;99.90;;;;;;5056838;28;20040;-53
2023/02/03 11:17:40;;;;;;;6.07;2.00;;;11.30;99.90;;;;;;5056368;28;20041;-51
2023/02/03 11:20:07;;;;;;;8.48;1.73;;;11.30;99.90;;;;;;5056406;28;20478;-51
2023/02/03 11:22:33;;;;;;;8.48;1.75;;;11.30;99.90;;;;;;5056639;28;20087;-52
2023/02/03 11:25:00;;;;;;;10.50;2.22;;;11.40;99.90;;;;;;5056547;28;20415;-51
2023/02/03 11:27:27;;;;;;;4.63;1.58;;;11.40;99.90;;;;;;5056171;28;20546;-51
2023/02/03 11:29:54;;;;;;;5.72;1.60;;;11.50;99.90;;;;;;5056633;28;20044;-51
2023/02/03 11:32:21;;;;;;;6.40;1.83;;;11.50;99.90;;;;;;5056465;28;20521;-55
2023/02/03 11:34:48;;;;;;;7.38;2.03;;;11.60;99.90;;;;;;5056527;28;20048;-53
2023/02/03 11:37:15;;;;;;;6.80;1.60;;;11.60;99.90;;;;;;5056170;28;20048;-50
2023/02/03 11:39:42;;;;;;;7.25;1.77;;;11.70;99.90;;;;;;5056483;28;20110;-52
2023/02/03 11:42:09;;;;;;;10.25;2.10;;;11.70;99.90;;;;;;5056257;28;20523;-52
2023/02/03 11:44:35;;;;;;;4.88;1.63;;;11.70;99.90;;;;;;5056285;28;20053;-51
2023/02/03 11:47:02;;;;;;;6.07;1.85;;;11.70;99.90;;;;;;5056394;28;20057;-54
2023/02/03 11:49:29;;;;;;;6.78;2.13;;;11.70;99.90;;;;;;5056098;28;20384;-52
2023/02/03 11:51:56;;;;;;;6.65;2.10;;;11.80;99.90;;;;;;5056436;28;20479;-54
2023/02/03 11:54:22;;;;;;;7.65;1.45;;;11.80;99.90;;;;;;5055866;28;20120;-49
2023/02/03 11:56:49;;;;;;;8.15;2.75;;;11.80;99.90;;;;;;5055772;28;20122;-53
2023/02/03 11:59:16;;;;;;;6.60;1.40;;;11.80;99.90;;;;;;5054267;28;20048;-47
2023/02/03 12:01:46;;;;;;;10.48;1.73;;;11.70;99.90;;;;;;5055809;28;20373;-50
2023/02/03 12:04:13;;;;;;;6.25;1.90;;;11.80;99.90;;;;;;5055556;28;20045;-51
2023/02/03 12:06:40;;;;;;;6.07;1.60;;;11.80;99.90;;;;;;5055743;28;20119;-53
2023/02/03 12:09:06;;;;;;;8.02;1.95;;;11.80;99.90;;;;;;5055562;28;20044;-52
2023/02/03 12:11:33;;;;;;;10.30;2.10;;;11.80;99.90;;;;;;5055646;28;20041;-52
2023/02/03 12:14:00;;;;;;;4.10;1.80;;;11.90;99.90;;;;;;5055758;28;20044;-55
2023/02/03 12:16:27;;;;;;;6.57;1.80;;;11.90;99.90;;;;;;5055620;28;20472;-53
2023/02/03 12:18:54;;;;;;;6.95;2.10;;;11.90;99.90;;;;;;5055559;28;20053;-53
2023/02/03 12:21:20;;;;;;;5.70;1.73;;;12.00;99.90;;;;;;5055782;28;20495;-51
2023/02/03 12:23:47;;;;;;;6.80;2.05;;;12.00;99.90;;;;;;5055505;28;20055;-54
2023/02/03 12:26:14;;;;;;;8.30;2.05;;;12.10;99.90;;;;;;5055483;28;20520;-52
2023/02/03 12:28:41;;;;;;;5.88;1.95;;;12.10;99.90;;;;;;5055881;28;20041;-49
2023/02/03 12:31:08;;;;;;;10.85;2.08;;;12.20;99.90;;;;;;5054996;28;20037;-53
2023/02/03 12:33:35;;;;;;;8.13;2.20;;;12.20;99.90;;;;;;5055236;28;20040;-53
2023/02/03 12:36:01;;;;;;;6.18;2.10;;;12.20;99.90;;;;;;5055425;28;20056;-55
2023/02/03 12:38:28;;;;;;;7.10;1.88;;;12.20;99.90;;;;;;5055116;28;20354;-55
2023/02/03 12:40:55;;;;;;;5.93;1.85;;;12.30;99.90;;;;;;5055369;28;20063;-53
2023/02/03 12:43:22;;;;;;;7.72;1.88;;;12.40;99.90;;;;;;5055065;28;20525;-54
2023/02/03 12:45:48;;;;;;;7.93;1.70;;;12.40;99.90;;;;;;5055243;28;20092;-55
2023/02/03 12:48:15;;;;;;;7.88;2.33;;;12.40;99.90;;;;;;5055047;28;20045;-52
2023/02/03 12:50:44;;;;;;;8.13;1.90;;;12.40;99.90;;;;;;5053638;28;20053;-52
2023/02/03 12:53:10;;;;;;;6.90;2.40;;;12.40;99.90;;;;;;5054986;28;20041;-53
2023/02/03 12:55:37;;;;;;;5.72;2.10;;;12.40;99.90;;;;;;5055107;28;20044;-55
2023/02/03 12:58:04;;;;;;;7.82;2.50;;;12.40;99.90;;;;;;5054057;28;20131;-53